Time;durP1;ratioP1;P1;durP2;ratioP2;P2;SDS_P1;SDS_P2;PMS_P1;PMS_P2;Temp;Humidity;BMP_temperature;BMP_pressure;BME280_temperature;BME280_humidity;BME280_pressure;Samples;Min_cycle;Max_cycle;Signal;HPM_P1;HPM_P2
2021/01/23 00:00:28;;;;;;;2.78;2.00;;;1.90;99.90;;;;;;5057717;28;20207;-71
2021/01/23 00:02:54;;;;;;;2.50;1.80;;;1.90;99.90;;;;;;5052815;28;20184;-71
2021/01/23 00:05:20;;;;;;;2.83;2.10;;;2.00;99.90;;;;;;5050346;28;20562;-71
2021/01/23 00:07:46;;;;;;;4.63;2.10;;;1.90;99.90;;;;;;5048370;28;20188;-70
2021/01/23 00:10:12;;;;;;;3.80;2.23;;;1.90;99.90;;;;;;5052082;28;20474;-71
2021/01/23 00:12:38;;;;;;;2.88;2.22;;;1.90;99.90;;;;;;5050548;28;20180;-70
2021/01/23 00:15:05;;;;;;;3.83;2.20;;;1.80;99.90;;;;;;5047391;28;20176;-70
2021/01/23 00:17:30;;;;;;;3.05;2.10;;;1.80;99.90;;;;;;5051024;28;20223;-73
2021/01/23 00:19:56;;;;;;;3.57;2.33;;;1.80;99.90;;;;;;5048390;28;20180;-72
2021/01/23 00:22:22;;;;;;;4.00;2.20;;;1.80;99.90;;;;;;5049792;28;20916;-72
2021/01/23 00:24:48;;;;;;;4.10;1.97;;;1.80;99.90;;;;;;5052044;28;20247;-72
2021/01/23 00:27:14;;;;;;;2.55;2.15;;;1.80;99.90;;;;;;5063242;28;20669;-72
2021/01/23 00:29:39;;;;;;;3.20;2.03;;;1.80;99.90;;;;;;5057305;28;20199;-70
2021/01/23 00:32:05;;;;;;;2.70;2.47;;;1.80;99.90;;;;;;5048963;28;20181;-71
2021/01/23 00:34:31;;;;;;;3.80;2.30;;;1.80;99.90;;;;;;5049170;28;20299;-70
2021/01/23 00:36:57;;;;;;;5.23;3.17;;;1.80;99.90;;;;;;5048911;28;20196;-72
2021/01/23 00:39:22;;;;;;;3.77;2.60;;;1.80;99.90;;;;;;5050892;28;20690;-70
2021/01/23 00:41:48;;;;;;;5.07;3.20;;;1.70;99.90;;;;;;5057245;28;20191;-72
2021/01/23 00:44:14;;;;;;;4.87;3.33;;;1.80;99.90;;;;;;5050888;28;20232;-70
2021/01/23 00:46:40;;;;;;;7.97;3.70;;;1.70;99.90;;;;;;5048387;28;20305;-70
2021/01/23 00:49:05;;;;;;;5.43;3.10;;;1.80;99.90;;;;;;5048647;28;20192;-72
2021/01/23 00:51:31;;;;;;;5.63;3.70;;;1.80;99.90;;;;;;5048427;28;20268;-71
2021/01/23 00:53:57;;;;;;;5.70;3.50;;;1.80;99.90;;;;;;5049090;28;20204;-69
2021/01/23 00:56:22;;;;;;;5.83;4.10;;;1.80;99.90;;;;;;5047281;28;20231;-71
2021/01/23 00:58:48;;;;;;;7.03;3.97;;;1.90;99.90;;;;;;5054340;28;20653;-70
2021/01/23 01:01:14;;;;;;;9.40;5.23;;;1.90;99.90;;;;;;5051956;28;20181;-70
2021/01/23 01:03:39;;;;;;;7.20;4.43;;;1.90;99.90;;;;;;5050665;28;20229;-71
2021/01/23 01:06:05;;;;;;;6.73;3.87;;;2.00;99.90;;;;;;5046138;28;20287;-70
2021/01/23 01:08:31;;;;;;;5.97;3.93;;;1.90;99.90;;;;;;5046904;28;20180;-70
2021/01/23 01:10:56;;;;;;;8.00;4.20;;;1.90;99.90;;;;;;5048705;28;20674;-71
2021/01/23 01:13:22;;;;;;;9.10;4.30;;;1.90;99.90;;;;;;5044864;28;20212;-71
2021/01/23 01:15:49;;;;;;;10.27;4.67;;;2.00;99.90;;;;;;5046435;28;20696;-71
2021/01/23 01:18:15;;;;;;;8.07;5.43;;;2.00;99.90;;;;;;5044701;28;20411;-70
2021/01/23 01:20:41;;;;;;;11.70;5.90;;;2.00;99.90;;;;;;5047531;28;20693;-70
2021/01/23 01:23:06;;;;;;;16.37;7.70;;;2.00;99.90;;;;;;5048382;28;20192;-70
2021/01/23 01:25:32;;;;;;;10.43;5.73;;;2.00;99.90;;;;;;5048111;28;20270;-70
2021/01/23 01:27:58;;;;;;;9.70;6.10;;;1.90;99.90;;;;;;5056110;28;20432;-71
2021/01/23 01:30:24;;;;;;;14.07;7.47;;;1.90;99.90;;;;;;5069740;28;20299;-71
2021/01/23 01:32:50;;;;;;;13.90;7.03;;;2.00;99.90;;;;;;5050565;28;20184;-70
2021/01/23 01:35:16;;;;;;;13.50;6.13;;;2.00;99.90;;;;;;5050592;28;20192;-71
2021/01/23 01:37:43;;;;;;;13.05;6.93;;;2.10;99.90;;;;;;5055548;28;20487;-72
2021/01/23 01:40:10;;;;;;;13.85;7.10;;;2.10;99.90;;;;;;5056122;28;20220;-71
2021/01/23 01:42:35;;;;;;;13.77;6.80;;;2.10;99.90;;;;;;5062362;28;20180;-71
2021/01/23 01:45:02;;;;;;;13.37;7.13;;;2.20;99.90;;;;;;5049864;28;20189;-72
2021/01/23 01:47:28;;;;;;;12.05;7.07;;;2.10;99.90;;;;;;5056628;28;20314;-71
2021/01/23 01:49:57;;;;;;;10.30;6.53;;;2.10;99.90;;;;;;5058202;28;20239;-69
2021/01/23 01:52:23;;;;;;;15.02;8.20;;;2.00;99.90;;;;;;5069636;28;20723;-70
2021/01/23 01:54:50;;;;;;;9.05;6.38;;;2.00;99.90;;;;;;5061430;28;20184;-70
2021/01/23 01:57:20;;;;;;;15.02;5.32;;;2.10;99.90;;;;;;5044386;28;20207;-71
2021/01/23 01:59:46;;;;;;;9.40;4.25;;;2.00;99.90;;;;;;5068935;28;20195;-69
2021/01/23 02:02:32;;;;;;;8.73;4.53;;;2.00;99.90;;;;;;5062175;28;20213;-72
2021/01/23 02:05:39;;;;;;;5.35;3.28;;;2.10;99.90;;;;;;5073360;28;20430;-69
2021/01/23 02:08:16;;;;;;;6.95;3.97;;;2.10;99.90;;;;;;5055526;28;20208;-71
2021/01/23 02:11:12;;;;;;;6.30;3.95;;;2.10;99.90;;;;;;5064184;28;20238;-71
2021/01/23 02:13:45;;;;;;;12.00;3.38;;;2.20;99.90;;;;;;5049220;28;20590;-71
2021/01/23 02:16:29;;;;;;;7.60;3.90;;;2.20;99.90;;;;;;5060011;28;20292;-70
2021/01/23 02:19:33;;;;;;;6.18;3.20;;;2.20;99.90;;;;;;5055720;28;20279;-70
2021/01/23 02:22:35;;;;;;;4.88;3.60;;;2.30;99.90;;;;;;5054480;28;20557;-70
2021/01/23 02:25:02;;;;;;;5.93;3.30;;;2.30;99.90;;;;;;5039133;28;20206;-69
2021/01/23 02:27:30;;;;;;;4.80;3.28;;;2.40;99.90;;;;;;5065570;28;20208;-71
2021/01/23 02:30:17;;;;;;;6.43;3.50;;;2.40;99.90;;;;;;5052389;28;20632;-69
2021/01/23 02:32:46;;;;;;;6.78;3.75;;;2.40;99.90;;;;;;5052201;28;20601;-70
2021/01/23 02:35:14;;;;;;;6.47;3.30;;;2.30;99.90;;;;;;5051848;28;20180;-71
2021/01/23 02:37:41;;;;;;;6.15;3.58;;;2.40;99.90;;;;;;5055288;28;20180;-70
2021/01/23 02:40:08;;;;;;;5.20;3.20;;;2.40;99.90;;;;;;5072236;28;20629;-70
2021/01/23 02:42:34;;;;;;;16.17;3.47;;;2.40;99.90;;;;;;5072369;28;20222;-70
2021/01/23 02:45:00;;;;;;;14.90;3.72;;;2.40;99.90;;;;;;5061278;28;20208;-69
2021/01/23 02:47:27;;;;;;;6.50;3.77;;;2.40;99.80;;;;;;5065462;28;20263;-69
2021/01/23 02:49:53;;;;;;;4.57;3.00;;;2.50;99.90;;;;;;5054341;28;20197;-71
2021/01/23 02:52:40;;;;;;;5.97;3.17;;;2.50;99.90;;;;;;5066000;28;20701;-70
2021/01/23 02:55:08;;;;;;;5.43;2.97;;;2.60;99.90;;;;;;5052105;28;20184;-72
2021/01/23 02:57:37;;;;;;;3.00;2.28;;;2.60;99.70;;;;;;5053784;28;20204;-69
2021/01/23 03:00:08;;;;;;;2.65;1.73;;;2.50;99.60;;;;;;5053008;28;20204;-69
2021/01/23 03:02:42;;;;;;;4.40;2.33;;;2.50;99.60;;;;;;5050864;28;20675;-70
2021/01/23 03:05:08;;;;;;;2.40;1.70;;;2.60;99.60;;;;;;5051615;28;20195;-70
2021/01/23 03:07:34;;;;;;;4.03;2.58;;;2.60;99.50;;;;;;5055261;28;20210;-71
2021/01/23 03:10:07;;;;;;;2.37;1.67;;;2.50;99.50;;;;;;5065091;28;20208;-71
2021/01/23 03:12:34;;;;;;;2.58;1.98;;;2.50;99.50;;;;;;5052859;28;20430;-70
2021/01/23 03:14:59;;;;;;;4.20;2.17;;;2.50;99.40;;;;;;5054571;28;20227;-70
2021/01/23 03:17:25;;;;;;;3.60;2.50;;;2.50;99.40;;;;;;5055913;28;20211;-70
2021/01/23 03:19:51;;;;;;;3.60;2.30;;;2.50;99.40;;;;;;5066964;28;20188;-70
2021/01/23 03:22:17;;;;;;;2.20;1.75;;;2.50;99.50;;;;;;5049801;28;20200;-72
2021/01/23 03:24:43;;;;;;;2.67;2.10;;;2.60;99.70;;;;;;5063666;28;20200;-70
2021/01/23 03:27:09;;;;;;;3.70;2.27;;;2.60;99.70;;;;;;5049551;28;20219;-71
2021/01/23 03:29:35;;;;;;;2.30;1.92;;;2.70;99.60;;;;;;5070596;28;20462;-70
2021/01/23 03:32:01;;;;;;;3.83;2.27;;;2.60;99.50;;;;;;5058117;28;20560;-72
2021/01/23 03:34:26;;;;;;;3.87;2.67;;;2.60;99.30;;;;;;5056571;28;20333;-70
2021/01/23 03:36:52;;;;;;;3.63;2.70;;;2.60;99.40;;;;;;5057361;28;20200;-71
2021/01/23 03:39:18;;;;;;;5.20;2.53;;;2.60;99.50;;;;;;5051025;28;20195;-71
2021/01/23 03:41:43;;;;;;;3.90;2.50;;;2.70;99.60;;;;;;5050940;28;20287;-71
2021/01/23 03:44:09;;;;;;;4.13;2.80;;;2.60;99.30;;;;;;5051021;28;20200;-69
2021/01/23 03:46:35;;;;;;;3.23;2.83;;;2.60;99.20;;;;;;5048784;28;20212;-70
2021/01/23 03:49:01;;;;;;;4.50;3.00;;;2.60;99.30;;;;;;5049493;28;20246;-71
2021/01/23 03:51:27;;;;;;;4.22;2.72;;;2.60;99.30;;;;;;5050925;28;20415;-71
2021/01/23 03:53:53;;;;;;;3.57;2.67;;;2.60;99.30;;;;;;5055579;28;20186;-71
2021/01/23 03:56:18;;;;;;;4.40;2.87;;;2.60;99.20;;;;;;5069885;28;20652;-70
2021/01/23 03:58:44;;;;;;;4.03;2.50;;;2.60;99.20;;;;;;5052540;28;20192;-72
2021/01/23 04:01:10;;;;;;;5.73;3.20;;;2.60;99.30;;;;;;5049681;28;20188;-70
2021/01/23 04:03:36;;;;;;;4.73;2.60;;;2.60;99.20;;;;;;5052709;28;20185;-71
2021/01/23 04:06:03;;;;;;;5.25;2.60;;;2.60;98.90;;;;;;5054109;28;20535;-71
2021/01/23 04:08:30;;;;;;;4.93;2.45;;;2.50;98.70;;;;;;5051739;28;20234;-70
2021/01/23 04:10:56;;;;;;;3.60;2.10;;;2.60;98.90;;;;;;5050267;28;20948;-70
2021/01/23 04:13:22;;;;;;;5.93;2.30;;;2.50;98.60;;;;;;5048649;28;20192;-70
2021/01/23 04:15:48;;;;;;;30.03;2.70;;;2.50;98.70;;;;;;5050306;28;20258;-70
2021/01/23 04:18:14;;;;;;;21.58;2.80;;;2.60;98.70;;;;;;5052374;28;20794;-71
2021/01/23 04:20:40;;;;;;;4.43;2.60;;;2.60;98.70;;;;;;5052854;28;20184;-72
2021/01/23 04:23:05;;;;;;;22.73;2.27;;;2.60;98.50;;;;;;5066478;28;20187;-72
2021/01/23 04:25:32;;;;;;;3.40;2.20;;;2.60;98.50;;;;;;5051389;28;20840;-71
2021/01/23 04:27:58;;;;;;;5.00;2.65;;;2.60;98.40;;;;;;5046780;28;20509;-71
2021/01/23 04:30:24;;;;;;;7.03;2.83;;;2.60;98.40;;;;;;5049674;28;20838;-71
2021/01/23 04:32:51;;;;;;;3.88;2.20;;;2.60;98.30;;;;;;5048363;28;20630;-71
2021/01/23 04:35:17;;;;;;;4.53;3.08;;;2.60;98.40;;;;;;5047500;28;20230;-71
2021/01/23 04:37:42;;;;;;;9.50;1.95;;;2.60;98.50;;;;;;5055652;28;20180;-72
2021/01/23 04:40:10;;;;;;;2.87;2.10;;;2.60;98.50;;;;;;5057796;28;20665;-70
2021/01/23 04:42:43;;;;;;;3.50;1.95;;;2.60;98.60;;;;;;5049749;28;20203;-73
2021/01/23 04:45:10;;;;;;;5.63;2.55;;;2.60;98.60;;;;;;5047249;28;20196;-73
2021/01/23 04:47:36;;;;;;;4.60;1.75;;;2.60;98.50;;;;;;5049119;28;20687;-73
2021/01/23 04:50:05;;;;;;;5.28;2.75;;;2.60;98.40;;;;;;5049290;28;20224;-72
2021/01/23 04:52:38;;;;;;;3.20;2.30;;;2.60;98.40;;;;;;5048276;28;20938;-70
2021/01/23 04:55:06;;;;;;;6.88;2.70;;;2.60;98.30;;;;;;5047203;28;20188;-71
2021/01/23 04:57:32;;;;;;;5.05;2.40;;;2.60;98.50;;;;;;5049428;28;20810;-70
2021/01/23 04:59:58;;;;;;;2.40;2.00;;;2.60;98.50;;;;;;5049686;28;20193;-70
2021/01/23 05:02:24;;;;;;;7.13;1.93;;;2.60;98.50;;;;;;5049731;28;20180;-70
2021/01/23 05:04:57;;;;;;;3.43;2.20;;;2.70;98.50;;;;;;5050872;28;20709;-70
2021/01/23 05:07:40;;;;;;;3.83;2.30;;;2.70;98.50;;;;;;5058642;28;20526;-71
2021/01/23 05:10:16;;;;;;;6.90;2.47;;;2.70;98.40;;;;;;5049541;28;20208;-70
2021/01/23 05:12:43;;;;;;;3.30;2.20;;;2.70;98.20;;;;;;5049824;28;20940;-71
2021/01/23 05:15:29;;;;;;;4.75;2.80;;;2.60;98.00;;;;;;5048793;28;20211;-71
2021/01/23 05:17:56;;;;;;;4.20;2.33;;;2.70;98.10;;;;;;5049207;28;20192;-71
2021/01/23 05:20:38;;;;;;;3.55;2.47;;;2.70;98.20;;;;;;5049619;28;20192;-70
2021/01/23 05:23:06;;;;;;;6.83;2.83;;;2.70;98.00;;;;;;5048549;28;20643;-71
2021/01/23 05:25:33;;;;;;;6.97;2.70;;;2.70;97.80;;;;;;5047481;28;22011;-71
2021/01/23 05:28:00;;;;;;;3.00;1.70;;;2.70;97.70;;;;;;5047528;28;20230;-71
2021/01/23 05:30:42;;;;;;;3.42;2.20;;;2.70;97.60;;;;;;5047432;28;20961;-70
2021/01/23 05:33:15;;;;;;;2.25;1.80;;;2.70;97.50;;;;;;5038612;28;20203;-70
2021/01/23 05:35:43;;;;;;;3.03;2.00;;;2.70;97.50;;;;;;5048526;28;20205;-70
2021/01/23 05:38:37;;;;;;;3.67;1.83;;;2.70;97.50;;;;;;5050154;28;20185;-69
2021/01/23 05:41:08;;;;;;;3.92;2.22;;;2.70;97.40;;;;;;5049716;28;20224;-69
2021/01/23 05:43:40;;;;;;;4.65;2.80;;;2.70;97.10;;;;;;5062747;28;20191;-69
2021/01/23 05:46:10;;;;;;;5.50;2.35;;;2.70;96.80;;;;;;5048808;28;20197;-70
2021/01/23 05:48:41;;;;;;;8.60;2.70;;;2.80;96.60;;;;;;5050067;28;20181;-70
2021/01/23 05:51:07;;;;;;;4.18;2.30;;;2.80;96.40;;;;;;5053304;28;20184;-70
2021/01/23 05:53:33;;;;;;;4.50;2.30;;;2.80;96.20;;;;;;5055301;28;20195;-69
2021/01/23 05:56:00;;;;;;;4.63;2.10;;;2.80;95.90;;;;;;5062231;28;20438;-71
2021/01/23 05:58:31;;;;;;;3.72;2.50;;;2.90;95.70;;;;;;5050418;28;20184;-71
2021/01/23 06:00:59;;;;;;;3.75;2.40;;;2.90;95.40;;;;;;5058048;28;20196;-71
2021/01/23 06:03:39;;;;;;;4.85;2.00;;;2.90;95.40;;;;;;5049067;28;20214;-71
2021/01/23 06:06:05;;;;;;;3.25;2.20;;;2.90;95.40;;;;;;5047602;28;20287;-71
2021/01/23 06:08:37;;;;;;;5.93;1.80;;;2.90;95.50;;;;;;5048253;28;20192;-70
2021/01/23 06:11:03;;;;;;;2.80;2.00;;;2.90;95.50;;;;;;5048788;28;20189;-72
2021/01/23 06:13:42;;;;;;;2.63;2.03;;;2.90;95.30;;;;;;5062216;28;20423;-70
2021/01/23 06:16:33;;;;;;;3.05;1.92;;;2.90;95.30;;;;;;5048517;28;20196;-71
2021/01/23 06:19:05;;;;;;;4.35;2.17;;;2.90;95.30;;;;;;5049075;28;20193;-71
2021/01/23 06:21:43;;;;;;;4.28;2.10;;;2.90;95.40;;;;;;5050953;28;20258;-72
2021/01/23 06:24:29;;;;;;;3.08;2.15;;;2.80;95.50;;;;;;5050812;28;20184;-71
2021/01/23 06:26:55;;;;;;;5.38;2.70;;;2.90;95.70;;;;;;5049824;28;20746;-72
2021/01/23 06:29:35;;;;;;;4.20;2.80;;;2.90;95.90;;;;;;5048949;28;20204;-72
2021/01/23 06:32:12;;;;;;;4.38;2.83;;;2.90;95.90;;;;;;5050876;28;20176;-70
2021/01/23 06:34:48;;;;;;;3.43;1.90;;;2.90;95.90;;;;;;5061981;28;20627;-71
2021/01/23 06:37:21;;;;;;;5.75;2.22;;;2.90;95.90;;;;;;5047842;28;20443;-70
2021/01/23 06:39:55;;;;;;;4.32;2.70;;;2.80;95.90;;;;;;5051336;28;20193;-69
2021/01/23 06:42:24;;;;;;;3.97;2.42;;;2.80;96.00;;;;;;5050526;28;20228;-72
2021/01/23 06:44:51;;;;;;;5.38;3.20;;;2.80;96.00;;;;;;5049395;28;20218;-72
2021/01/23 06:47:16;;;;;;;3.75;2.90;;;2.70;96.00;;;;;;5051236;28;20204;-71
2021/01/23 06:49:43;;;;;;;5.87;2.43;;;2.80;96.10;;;;;;5051978;28;20728;-71
2021/01/23 06:52:10;;;;;;;7.60;3.22;;;2.80;96.10;;;;;;5051733;28;20515;-72
2021/01/23 06:54:37;;;;;;;4.00;2.28;;;2.70;96.00;;;;;;5050800;28;20181;-71
2021/01/23 06:57:04;;;;;;;5.97;3.50;;;2.70;95.80;;;;;;5050849;28;20208;-70
2021/01/23 06:59:36;;;;;;;3.60;2.40;;;2.70;95.70;;;;;;5051217;28;20238;-70
2021/01/23 07:02:06;;;;;;;4.07;2.70;;;2.70;95.80;;;;;;5050352;28;20686;-70
2021/01/23 07:04:37;;;;;;;5.70;2.80;;;2.60;95.80;;;;;;5051299;28;20322;-71
2021/01/23 07:07:07;;;;;;;8.90;2.50;;;2.60;96.00;;;;;;5037107;28;20321;-70
2021/01/23 07:09:51;;;;;;;3.63;2.53;;;2.60;96.00;;;;;;5055027;28;20275;-71
2021/01/23 07:12:37;;;;;;;4.88;2.72;;;2.60;95.80;;;;;;5063137;28;20236;-71
2021/01/23 07:15:22;;;;;;;5.95;2.75;;;2.60;95.80;;;;;;5053062;28;20295;-71
2021/01/23 07:17:49;;;;;;;4.68;2.70;;;2.60;95.90;;;;;;5055221;28;20720;-70
2021/01/23 07:20:17;;;;;;;4.60;3.15;;;2.60;95.90;;;;;;5060533;28;20558;-71
2021/01/23 07:22:44;;;;;;;7.45;3.10;;;2.60;95.90;;;;;;5068608;28;20639;-71
2021/01/23 07:25:15;;;;;;;7.65;3.30;;;2.60;96.10;;;;;;5050025;28;20679;-71
2021/01/23 07:27:43;;;;;;;5.93;3.45;;;2.60;96.10;;;;;;5049175;28;20615;-71
2021/01/23 07:30:17;;;;;;;4.60;2.70;;;2.60;96.10;;;;;;5049408;28;20232;-69
2021/01/23 07:32:44;;;;;;;5.32;3.35;;;2.60;96.10;;;;;;5050361;28;20187;-72
2021/01/23 07:35:11;;;;;;;4.65;2.75;;;2.60;96.10;;;;;;5048741;28;20260;-73
2021/01/23 07:37:41;;;;;;;6.03;3.38;;;2.70;95.90;;;;;;5050220;28;20599;-72
2021/01/23 07:40:09;;;;;;;4.90;3.08;;;2.60;95.90;;;;;;5050731;28;20257;-71
2021/01/23 07:42:35;;;;;;;4.13;3.13;;;2.70;95.90;;;;;;5050811;28;20181;-73
2021/01/23 07:45:05;;;;;;;6.93;3.65;;;2.70;95.80;;;;;;5049364;28;20185;-70
2021/01/23 07:47:31;;;;;;;8.13;3.80;;;2.70;95.50;;;;;;5049853;28;20224;-70
2021/01/23 07:50:09;;;;;;;5.40;3.40;;;2.70;95.50;;;;;;5050234;28;20241;-70
2021/01/23 07:52:36;;;;;;;5.93;3.45;;;2.70;95.50;;;;;;5038304;28;20957;-71
2021/01/23 07:55:03;;;;;;;6.90;3.63;;;2.70;95.30;;;;;;5051114;28;20191;-73
2021/01/23 07:57:29;;;;;;;6.47;3.25;;;2.70;95.20;;;;;;5051800;28;20200;-72
2021/01/23 07:59:55;;;;;;;5.20;3.93;;;2.80;95.40;;;;;;5050956;28;20219;-70
2021/01/23 08:02:20;;;;;;;7.00;3.77;;;2.80;95.40;;;;;;5057835;28;20950;-71
2021/01/23 08:05:05;;;;;;;6.13;3.17;;;2.80;95.30;;;;;;5068446;28;20590;-70
2021/01/23 08:07:41;;;;;;;7.45;3.60;;;2.80;95.20;;;;;;5049657;28;20439;-70
2021/01/23 08:10:10;;;;;;;5.75;3.53;;;2.80;95.10;;;;;;5048385;28;20204;-72
2021/01/23 08:12:37;;;;;;;5.57;3.20;;;2.90;94.80;;;;;;5050398;28;20195;-73
2021/01/23 08:15:05;;;;;;;6.57;3.97;;;2.90;94.70;;;;;;5049038;28;20287;-71
2021/01/23 08:17:47;;;;;;;6.40;3.75;;;3.00;94.60;;;;;;5049824;28;20640;-72
2021/01/23 08:20:18;;;;;;;5.72;3.45;;;3.00;94.50;;;;;;5050117;28;20191;-71
2021/01/23 08:23:09;;;;;;;8.48;4.35;;;3.10;94.30;;;;;;5049355;28;20192;-72
2021/01/23 08:25:54;;;;;;;8.93;4.68;;;3.10;94.10;;;;;;5049314;28;20200;-71
2021/01/23 08:28:32;;;;;;;7.65;3.90;;;3.10;93.80;;;;;;5049855;28;20196;-72
2021/01/23 08:31:21;;;;;;;7.97;4.38;;;3.10;93.80;;;;;;5050016;28;20386;-72
2021/01/23 08:33:56;;;;;;;9.90;4.63;;;3.10;93.90;;;;;;5051492;28;20208;-73
2021/01/23 08:36:24;;;;;;;7.83;4.77;;;3.10;93.90;;;;;;5039487;28;20818;-70
2021/01/23 08:39:04;;;;;;;6.55;3.90;;;3.10;93.90;;;;;;5064773;28;20418;-70
2021/01/23 08:41:32;;;;;;;5.47;3.75;;;3.20;93.80;;;;;;5070319;28;20211;-71
2021/01/23 08:43:59;;;;;;;7.60;4.20;;;3.20;93.70;;;;;;5055450;28;20187;-70
2021/01/23 08:46:25;;;;;;;5.90;3.88;;;3.20;93.60;;;;;;5050838;28;20709;-72
2021/01/23 08:48:51;;;;;;;8.88;4.45;;;3.20;93.80;;;;;;5056563;28;20589;-70
2021/01/23 08:51:17;;;;;;;5.70;3.30;;;3.20;93.70;;;;;;5061687;28;20263;-71
2021/01/23 08:53:42;;;;;;;8.00;4.10;;;3.30;93.50;;;;;;5050869;28;20944;-72
2021/01/23 08:56:11;;;;;;;6.33;3.63;;;3.40;93.50;;;;;;5048042;28;20447;-71
2021/01/23 08:58:37;;;;;;;5.75;3.22;;;3.40;93.40;;;;;;5047485;28;20254;-71
2021/01/23 09:01:03;;;;;;;8.50;4.20;;;3.50;93.30;;;;;;5049299;28;20928;-70
2021/01/23 09:03:29;;;;;;;7.67;4.37;;;3.50;93.00;;;;;;5052073;28;20506;-71
2021/01/23 09:05:54;;;;;;;5.03;3.33;;;3.60;92.90;;;;;;5051354;28;20891;-71
2021/01/23 09:08:20;;;;;;;7.30;4.03;;;3.70;92.70;;;;;;5051083;28;20185;-69
2021/01/23 09:10:46;;;;;;;6.40;4.13;;;3.70;92.40;;;;;;5050143;28;20697;-74
2021/01/23 09:13:12;;;;;;;7.50;3.37;;;3.70;92.10;;;;;;5049717;28;20635;-72
2021/01/23 09:15:38;;;;;;;7.43;4.00;;;3.70;92.00;;;;;;5047171;28;20200;-73
2021/01/23 09:18:05;;;;;;;5.93;3.20;;;3.70;92.20;;;;;;5048657;28;20480;-74
2021/01/23 09:20:30;;;;;;;7.80;3.25;;;3.70;92.00;;;;;;5049321;28;20188;-74
2021/01/23 09:22:56;;;;;;;4.63;2.90;;;3.90;92.10;;;;;;5054068;28;20628;-73
2021/01/23 09:25:22;;;;;;;7.73;3.50;;;3.90;91.30;;;;;;5055687;28;20604;-73
2021/01/23 09:27:47;;;;;;;5.37;3.50;;;4.00;91.40;;;;;;5048296;28;20346;-73
2021/01/23 09:30:14;;;;;;;5.30;3.10;;;4.00;91.50;;;;;;5048973;28;20606;-73
2021/01/23 09:32:42;;;;;;;5.70;3.57;;;4.00;91.60;;;;;;5047351;28;20226;-74
2021/01/23 09:35:08;;;;;;;5.70;3.00;;;4.10;91.20;;;;;;5047130;28;20423;-74
2021/01/23 09:37:34;;;;;;;6.37;2.60;;;4.20;90.70;;;;;;5048592;28;20443;-73
2021/01/23 09:40:01;;;;;;;6.37;2.80;;;4.20;90.20;;;;;;5049114;28;20438;-73
2021/01/23 09:42:27;;;;;;;3.57;2.83;;;4.20;90.40;;;;;;5048706;28;20184;-74
2021/01/23 09:44:53;;;;;;;4.80;3.10;;;4.20;90.00;;;;;;5048592;28;20439;-74
2021/01/23 09:47:18;;;;;;;4.20;2.73;;;4.20;90.20;;;;;;5047363;28;20530;-73
2021/01/23 09:49:44;;;;;;;6.77;3.10;;;4.30;90.20;;;;;;5048313;28;20746;-72
2021/01/23 09:52:10;;;;;;;3.83;2.83;;;4.30;90.20;;;;;;5048992;28;20806;-72
2021/01/23 09:54:35;;;;;;;3.70;2.50;;;4.30;90.10;;;;;;5046776;28;20279;-72
2021/01/23 09:57:03;;;;;;;4.57;3.00;;;4.40;90.20;;;;;;5049381;28;20209;-73
2021/01/23 09:59:28;;;;;;;5.33;2.93;;;4.40;90.00;;;;;;5050378;28;20192;-73
2021/01/23 10:01:54;;;;;;;5.83;3.00;;;4.40;89.70;;;;;;5053079;28;20430;-74
2021/01/23 10:04:20;;;;;;;9.93;3.27;;;4.40;90.00;;;;;;5068075;28;20422;-74
2021/01/23 10:06:46;;;;;;;6.70;3.17;;;4.50;90.10;;;;;;5050916;28;20562;-72
2021/01/23 10:09:12;;;;;;;6.27;3.00;;;4.70;89.60;;;;;;5047001;28;20270;-72
2021/01/23 10:11:37;;;;;;;5.17;3.53;;;4.70;89.00;;;;;;5048530;28;20184;-73
2021/01/23 10:14:03;;;;;;;6.10;3.30;;;4.60;89.30;;;;;;5047451;28;20509;-73
2021/01/23 10:16:29;;;;;;;5.90;3.13;;;4.80;89.30;;;;;;5049960;28;20707;-72
2021/01/23 10:18:54;;;;;;;8.73;3.77;;;4.80;89.00;;;;;;5052953;28;20503;-70
2021/01/23 10:21:20;;;;;;;4.80;3.23;;;4.70;88.60;;;;;;5056604;28;20188;-70
2021/01/23 10:23:46;;;;;;;4.67;2.80;;;4.80;88.70;;;;;;5073076;28;20191;-71
2021/01/23 10:26:12;;;;;;;7.90;3.40;;;4.80;88.70;;;;;;5054191;28;20306;-72
2021/01/23 10:28:37;;;;;;;6.80;3.37;;;4.90;88.10;;;;;;5053218;28;20563;-71
2021/01/23 10:31:03;;;;;;;4.63;2.77;;;4.90;88.10;;;;;;5066357;28;20550;-71
2021/01/23 10:33:29;;;;;;;5.40;3.00;;;4.90;87.70;;;;;;5063161;28;20666;-71
2021/01/23 10:35:54;;;;;;;4.63;3.30;;;4.90;88.00;;;;;;5052526;28;20203;-71
2021/01/23 10:38:20;;;;;;;5.13;2.70;;;4.80;88.70;;;;;;5052710;28;20177;-71
2021/01/23 10:40:46;;;;;;;5.30;3.00;;;4.80;88.60;;;;;;5064603;28;20655;-70
2021/01/23 10:43:12;;;;;;;4.20;2.73;;;4.70;88.70;;;;;;5053602;28;20184;-71
2021/01/23 10:45:38;;;;;;;6.00;3.10;;;4.80;89.30;;;;;;5058441;28;20450;-71
2021/01/23 10:48:05;;;;;;;4.83;3.50;;;4.80;89.30;;;;;;5059652;28;20188;-71
2021/01/23 10:50:31;;;;;;;5.60;3.03;;;4.80;89.20;;;;;;5069214;28;20462;-71
2021/01/23 10:52:57;;;;;;;5.97;3.10;;;4.80;89.30;;;;;;5063065;28;20430;-71
2021/01/23 10:55:22;;;;;;;4.20;3.10;;;4.80;89.50;;;;;;5053312;28;20536;-71
2021/01/23 10:57:48;;;;;;;5.60;3.40;;;4.80;89.20;;;;;;5065133;28;20437;-71
2021/01/23 11:00:15;;;;;;;6.57;3.60;;;4.80;88.90;;;;;;5055932;28;20181;-71
2021/01/23 11:02:41;;;;;;;4.87;2.97;;;4.90;89.50;;;;;;5053812;28;20185;-72
2021/01/23 11:05:08;;;;;;;5.27;3.13;;;4.90;89.00;;;;;;5066041;28;20427;-70
2021/01/23 11:07:33;;;;;;;5.73;3.47;;;4.90;88.60;;;;;;5055525;28;20450;-70
2021/01/23 11:09:59;;;;;;;4.60;3.03;;;4.90;89.00;;;;;;5068795;28;20466;-72
2021/01/23 11:12:25;;;;;;;4.53;3.03;;;5.00;88.60;;;;;;5053937;28;20211;-70
2021/01/23 11:14:51;;;;;;;5.90;3.03;;;5.10;88.40;;;;;;5051727;28;20921;-70
2021/01/23 11:17:16;;;;;;;5.23;3.30;;;5.10;87.60;;;;;;5052511;28;20197;-73
2021/01/23 11:19:42;;;;;;;6.07;3.30;;;5.10;88.00;;;;;;5071045;28;20290;-71
2021/01/23 11:22:08;;;;;;;7.87;4.17;;;5.10;87.60;;;;;;5060340;28;20267;-70
2021/01/23 11:24:34;;;;;;;7.00;3.47;;;5.20;88.00;;;;;;5056552;28;20187;-72
2021/01/23 11:27:00;;;;;;;7.13;3.37;;;5.20;87.70;;;;;;5058282;28;20842;-72
2021/01/23 11:29:26;;;;;;;7.20;3.30;;;5.20;87.60;;;;;;5057191;28;20859;-72
2021/01/23 11:31:51;;;;;;;5.20;3.00;;;5.20;87.60;;;;;;5060026;28;20410;-71
2021/01/23 11:34:17;;;;;;;7.47;3.50;;;5.20;87.70;;;;;;5053117;28;20647;-70
2021/01/23 11:36:43;;;;;;;4.80;3.50;;;5.30;87.80;;;;;;5054473;28;20578;-72
2021/01/23 11:39:09;;;;;;;5.13;3.07;;;5.20;88.10;;;;;;5069924;28;20415;-71
2021/01/23 11:41:35;;;;;;;6.57;3.57;;;5.20;88.10;;;;;;5064479;28;20988;-70
2021/01/23 11:44:01;;;;;;;4.33;2.80;;;5.20;88.30;;;;;;5055307;28;20383;-71
2021/01/23 11:46:27;;;;;;;5.97;3.47;;;5.20;88.10;;;;;;5050991;28;20960;-70
2021/01/23 11:48:53;;;;;;;9.70;3.40;;;5.30;88.30;;;;;;5056154;28;20187;-70
2021/01/23 11:51:19;;;;;;;5.90;2.77;;;5.40;88.10;;;;;;5062022;28;20431;-72
2021/01/23 11:53:44;;;;;;;4.10;2.70;;;5.40;87.70;;;;;;5066742;28;20422;-70
2021/01/23 11:56:10;;;;;;;3.60;2.60;;;5.40;87.10;;;;;;5053187;28;20204;-72
2021/01/23 11:58:36;;;;;;;3.73;2.63;;;5.30;86.90;;;;;;5071099;28;20425;-70
2021/01/23 12:01:02;;;;;;;3.83;2.40;;;5.30;86.90;;;;;;5053502;28;20185;-70
2021/01/23 12:03:28;;;;;;;3.47;2.47;;;5.30;86.90;;;;;;5053349;28;20180;-71
2021/01/23 12:05:54;;;;;;;5.00;3.03;;;5.30;86.60;;;;;;5049610;28;20587;-71
2021/01/23 12:08:19;;;;;;;3.63;2.77;;;5.30;86.50;;;;;;5055174;28;20662;-70
2021/01/23 12:10:45;;;;;;;6.63;2.60;;;5.40;86.30;;;;;;5053763;28;20212;-70
2021/01/23 12:13:11;;;;;;;5.73;3.03;;;5.40;86.00;;;;;;5056332;28;20188;-72
2021/01/23 12:15:37;;;;;;;3.63;2.40;;;5.40;85.50;;;;;;5049910;28;20216;-72
2021/01/23 12:18:03;;;;;;;2.80;2.23;;;5.40;85.60;;;;;;5052764;28;20410;-70
2021/01/23 12:20:29;;;;;;;4.00;2.43;;;5.40;85.50;;;;;;5050516;28;20459;-70
2021/01/23 12:22:55;;;;;;;7.00;3.07;;;5.40;85.70;;;;;;5068446;28;20523;-69
2021/01/23 12:25:20;;;;;;;3.77;3.00;;;5.50;85.20;;;;;;5069697;28;20263;-70
2021/01/23 12:27:46;;;;;;;9.73;2.70;;;5.60;85.20;;;;;;5052058;28;20283;-70
2021/01/23 12:30:14;;;;;;;4.40;3.00;;;5.70;84.90;;;;;;5053927;28;20209;-72
2021/01/23 12:32:40;;;;;;;5.80;2.70;;;5.70;84.60;;;;;;5052631;28;20180;-72
2021/01/23 12:35:08;;;;;;;4.17;2.63;;;5.70;84.40;;;;;;5050201;28;20419;-71
2021/01/23 12:37:34;;;;;;;5.00;2.70;;;5.70;84.00;;;;;;5047350;28;20365;-71
2021/01/23 12:40:02;;;;;;;5.00;2.90;;;5.70;83.80;;;;;;5059672;28;21007;-71
2021/01/23 12:42:28;;;;;;;3.63;2.57;;;5.80;84.40;;;;;;5065833;28;20553;-72
2021/01/23 12:44:55;;;;;;;3.63;2.40;;;5.80;83.60;;;;;;5049798;28;20510;-72
2021/01/23 12:47:21;;;;;;;5.33;2.90;;;5.80;83.60;;;;;;5049340;28;20211;-69
2021/01/23 12:49:47;;;;;;;5.03;2.50;;;5.80;83.70;;;;;;5049087;28;20474;-72
2021/01/23 12:52:13;;;;;;;5.27;2.73;;;5.80;83.30;;;;;;5055069;28;20424;-71
2021/01/23 12:54:40;;;;;;;4.20;2.57;;;5.80;84.00;;;;;;5050493;28;20189;-70
2021/01/23 12:57:06;;;;;;;5.60;2.93;;;5.80;83.80;;;;;;5053902;28;20685;-71
2021/01/23 12:59:32;;;;;;;4.73;2.63;;;5.90;83.10;;;;;;5051190;28;20508;-69
2021/01/23 13:01:58;;;;;;;5.37;2.60;;;5.90;83.60;;;;;;5050865;28;20439;-69